Terminal Aerodrome Forecast
Issued by NWS

Home | Current Version | Previous Version | Text Only | Print | Product List | Glossary On
Versions: 1 2 3 4 5 6 7 8 9 10 11 12 13 14 15
000
FTUS46 KPDT 072320
TAFBDN
TAF
KBDN 072320Z 0800/0824 34010G18KT P6SM VCTS SCT050CB BKN070CB
      OVC100
      TEMPO 0800/0802 VRB15G30KT 5SM TSRA FEW040CB BKN060CB
     FM080300 VRB04KT P6SM SCT120 SCT250
     FM080900 21004KT P6SM SCT250
     FM081600 35005KT P6SM FEW080 SCT250
     FM082200 35012G19KT P6SM VCSH BKN080 BKN250
      AMD NOT SKED=

USA.gov is the U.S. government's official web portal to all federal, state and local government web resources and services.